createdAt,value
2019-04-30T00:01:15.108Z,5.842285
2019-04-30T00:02:18.139Z,5.862427
2019-04-30T00:03:28.652Z,5.842285
2019-04-30T00:04:40.449Z,5.862427
2019-04-30T00:05:49.233Z,5.832214
2019-04-30T00:06:58.160Z,5.832214
2019-04-30T00:08:08.667Z,5.832214
2019-04-30T00:09:19.226Z,5.822144
2019-04-30T00:10:35.782Z,5.832214
2019-04-30T00:11:38.192Z,5.822144
2019-04-30T00:12:48.727Z,5.802002
2019-04-30T00:13:58.922Z,5.791931
2019-04-30T00:15:10.867Z,5.791931
2019-04-30T00:16:18.231Z,5.791931
2019-04-30T00:17:27.751Z,5.802002
2019-04-30T00:18:39.452Z,5.761719
2019-04-30T00:19:50.365Z,5.791931
2019-04-30T00:20:58.253Z,5.802002
2019-04-30T00:22:08.741Z,5.791931
2019-04-30T00:23:22.545Z,5.791931
2019-04-30T00:24:28.723Z,5.791931
2019-04-30T00:25:39.236Z,5.761719
2019-04-30T00:26:52.163Z,5.791931
2019-04-30T00:28:00.173Z,5.761719
2019-04-30T00:29:08.730Z,5.761719
2019-04-30T00:30:19.224Z,5.791931
2019-04-30T00:31:28.752Z,5.802002
2019-04-30T00:32:43.373Z,5.802002
2019-04-30T00:33:47.763Z,5.802002
2019-04-30T00:34:58.266Z,5.791931
2019-04-30T00:36:08.776Z,5.802002
2019-04-30T00:37:18.923Z,5.791931
2019-04-30T00:38:29.438Z,5.802002
2019-04-30T00:39:38.241Z,5.791931
2019-04-30T00:40:48.726Z,5.802002
2019-04-30T00:41:59.237Z,5.822144
2019-04-30T00:43:09.115Z,5.802002
2019-04-30T00:44:19.791Z,5.822144
2019-04-30T00:45:28.770Z,5.822144
2019-04-30T00:46:39.278Z,5.822144
2019-04-30T00:47:48.776Z,5.842285
2019-04-30T00:49:08.699Z,5.832214
2019-04-30T00:50:08.754Z,5.842285
2019-04-30T00:51:20.949Z,5.842285
2019-04-30T00:52:29.424Z,5.862427
2019-04-30T00:53:38.233Z,5.862427
2019-04-30T00:54:48.713Z,5.862427
2019-04-30T00:55:59.224Z,5.872498
2019-04-30T00:57:08.749Z,5.872498
2019-04-30T00:58:24.635Z,5.872498
2019-04-30T00:59:28.772Z,5.872498
2019-04-30T01:00:39.321Z,5.872498
2019-04-30T01:01:48.840Z,5.892639
2019-04-30T01:03:00.747Z,5.872498
2019-04-30T01:04:08.879Z,5.892639
2019-04-30T01:05:19.378Z,5.892639
2019-04-30T01:06:28.915Z,5.892639
2019-04-30T01:07:39.542Z,5.90271
2019-04-30T01:08:48.954Z,5.90271
2019-04-30T01:09:59.474Z,5.892639
2019-04-30T01:11:09.548Z,5.912781
2019-04-30T01:12:25.185Z,5.90271
2019-04-30T01:13:29.143Z,5.932922
2019-04-30T01:14:39.526Z,5.932922
2019-04-30T01:15:52.443Z,5.942993
2019-04-30T01:17:03.667Z,5.942993
2019-04-30T01:18:10.108Z,5.932922
2019-04-30T01:19:29.114Z,5.942993
2019-04-30T01:20:32.606Z,5.973206
2019-04-30T01:21:46.902Z,5.942993
2019-04-30T01:22:51.139Z,5.973206
2019-04-30T01:24:01.650Z,5.983276
2019-04-30T01:25:13.361Z,5.973206
2019-04-30T01:26:22.771Z,5.973206
2019-04-30T01:27:32.204Z,5.983276
2019-04-30T01:28:42.688Z,5.973206
2019-04-30T01:29:53.212Z,5.973206
2019-04-30T01:31:02.749Z,5.983276
2019-04-30T01:32:17.279Z,5.983276
2019-04-30T01:33:21.753Z,5.983276
2019-04-30T01:34:32.281Z,5.973206
2019-04-30T01:35:42.836Z,5.983276
2019-04-30T01:36:52.408Z,5.983276
2019-04-30T01:38:03.881Z,5.983276
2019-04-30T01:39:12.388Z,5.983276
2019-04-30T01:40:22.901Z,5.983276
2019-04-30T01:41:32.446Z,5.993347
2019-04-30T01:42:47.874Z,5.993347
2019-04-30T01:43:52.484Z,5.993347
2019-04-30T01:45:02.997Z,6.013489
2019-04-30T01:46:13.939Z,5.993347
2019-04-30T01:47:27.567Z,6.013489
2019-04-30T01:48:32.584Z,5.993347
2019-04-30T01:49:44.806Z,5.993347
2019-04-30T01:50:52.662Z,5.993347
2019-04-30T01:52:02.178Z,6.013489
2019-04-30T01:53:13.227Z,6.013489
2019-04-30T01:54:24.145Z,6.013489
2019-04-30T01:55:30.769Z,6.043701
2019-04-30T01:56:41.307Z,6.013489
2019-04-30T01:57:50.843Z,6.013489
2019-04-30T01:59:00.364Z,6.013489
2019-04-30T02:00:09.899Z,6.02356
2019-04-30T02:01:20.460Z,6.02356
2019-04-30T02:02:30.990Z,6.013489
2019-04-30T02:03:40.515Z,6.02356
2019-04-30T02:04:50.056Z,6.02356
2019-04-30T02:05:59.714Z,6.043701
2019-04-30T02:07:10.109Z,6.043701
2019-04-30T02:08:19.694Z,6.043701
2019-04-30T02:09:30.156Z,6.043701
2019-04-30T02:10:40.356Z,6.02356
2019-04-30T02:11:50.242Z,6.02356
2019-04-30T02:13:00.781Z,6.043701
2019-04-30T02:14:10.311Z,6.02356
2019-04-30T02:15:19.832Z,6.043701
2019-04-30T02:16:30.357Z,6.043701
2019-04-30T02:17:39.893Z,6.043701
2019-04-30T02:18:50.420Z,6.043701
2019-04-30T02:20:00.930Z,6.043701
2019-04-30T02:21:11.407Z,6.02356
2019-04-30T02:22:19.989Z,6.043701
2019-04-30T02:23:30.533Z,6.02356
2019-04-30T02:24:40.065Z,6.013489
2019-04-30T02:25:49.591Z,6.013489
2019-04-30T02:27:00.142Z,5.993347
2019-04-30T02:28:09.673Z,5.993347
2019-04-30T02:29:20.209Z,5.983276
2019-04-30T02:30:31.188Z,5.983276
2019-04-30T02:31:41.288Z,5.983276
2019-04-30T02:32:52.463Z,5.983276
2019-04-30T02:34:01.340Z,5.983276
2019-04-30T02:35:10.869Z,5.983276
2019-04-30T02:36:20.428Z,5.973206
2019-04-30T02:37:30.934Z,5.973206
2019-04-30T02:38:41.455Z,5.983276
2019-04-30T02:39:50.970Z,5.942993
2019-04-30T02:41:01.499Z,5.983276
2019-04-30T02:42:13.037Z,5.973206
2019-04-30T02:43:21.504Z,5.942993
2019-04-30T02:44:31.032Z,5.983276
2019-04-30T02:45:41.575Z,5.973206
2019-04-30T02:46:51.110Z,5.983276
2019-04-30T02:48:01.620Z,5.983276
2019-04-30T02:49:12.141Z,5.973206
2019-04-30T02:50:22.503Z,5.973206
2019-04-30T02:51:31.179Z,5.973206
2019-04-30T02:52:40.705Z,5.942993
2019-04-30T02:53:51.217Z,5.973206
2019-04-30T02:55:01.708Z,5.973206
2019-04-30T02:56:11.272Z,5.973206
2019-04-30T02:57:23.364Z,5.942993
2019-04-30T02:58:31.300Z,5.942993
2019-04-30T02:59:41.823Z,5.973206
2019-04-30T03:00:51.364Z,5.973206
2019-04-30T03:02:00.912Z,5.942993
2019-04-30T03:03:11.446Z,5.973206
2019-04-30T03:04:20.937Z,5.973206
2019-04-30T03:05:31.067Z,5.942993
2019-04-30T03:06:40.528Z,5.973206
2019-04-30T03:07:53.356Z,5.942993
2019-04-30T03:09:01.426Z,5.973206
2019-04-30T03:10:11.544Z,5.983276
2019-04-30T03:11:21.212Z,5.983276
2019-04-30T03:12:33.642Z,5.983276
2019-04-30T03:13:42.760Z,5.993347
2019-04-30T03:14:50.654Z,5.983276
2019-04-30T03:16:01.168Z,6.013489
2019-04-30T03:17:10.712Z,5.993347
2019-04-30T03:18:22.957Z,6.013489
2019-04-30T03:19:30.711Z,5.993347
2019-04-30T03:20:41.250Z,5.993347
2019-04-30T03:21:50.785Z,5.993347
2019-04-30T03:23:02.360Z,5.993347
2019-04-30T03:24:11.119Z,6.013489
2019-04-30T03:25:21.353Z,5.993347
2019-04-30T03:26:30.906Z,6.013489
2019-04-30T03:27:42.466Z,5.993347
2019-04-30T03:28:50.960Z,6.013489
2019-04-30T03:30:01.508Z,6.02356
2019-04-30T03:31:12.714Z,6.02356
2019-04-30T03:32:23.126Z,6.043701
2019-04-30T03:33:33.192Z,6.02356
2019-04-30T03:34:43.532Z,6.013489
2019-04-30T03:35:54.464Z,6.02356
2019-04-30T03:37:03.568Z,6.02356
2019-04-30T03:38:13.085Z,6.043701
2019-04-30T03:39:22.600Z,6.043701
2019-04-30T03:40:33.112Z,6.02356
2019-04-30T03:41:42.660Z,6.043701
2019-04-30T03:42:52.161Z,6.043701
2019-04-30T03:44:17.073Z,6.053772
2019-04-30T03:45:13.148Z,6.043701
2019-04-30T03:46:22.679Z,6.053772
2019-04-30T03:47:32.208Z,6.053772
2019-04-30T03:48:42.723Z,6.053772
2019-04-30T03:49:52.243Z,6.053772
2019-04-30T03:51:01.750Z,6.053772
2019-04-30T03:52:13.222Z,6.073914
2019-04-30T03:53:20.807Z,6.073914
2019-04-30T03:54:30.338Z,6.053772
2019-04-30T03:55:40.862Z,6.053772
2019-04-30T03:56:51.409Z,6.073914
2019-04-30T03:58:01.939Z,6.053772
2019-04-30T03:59:11.458Z,6.053772
2019-04-30T04:00:20.986Z,6.043701
2019-04-30T04:01:30.511Z,6.073914
2019-04-30T04:02:41.061Z,6.053772
2019-04-30T04:03:51.582Z,6.053772
2019-04-30T04:05:01.317Z,6.073914
2019-04-30T04:06:11.596Z,6.073914
2019-04-30T04:07:22.131Z,6.073914
2019-04-30T04:08:31.682Z,6.083984
2019-04-30T04:09:42.201Z,6.083984
2019-04-30T04:10:52.909Z,6.114197
2019-04-30T04:12:01.268Z,6.094055
2019-04-30T04:13:11.822Z,6.094055
2019-04-30T04:14:21.346Z,6.094055
2019-04-30T04:15:30.881Z,6.094055
2019-04-30T04:16:41.386Z,6.114197
2019-04-30T04:17:51.937Z,6.094055
2019-04-30T04:19:02.664Z,6.094055
2019-04-30T04:20:10.994Z,6.114197
2019-04-30T04:21:21.490Z,6.124268
2019-04-30T04:22:31.087Z,6.114197
2019-04-30T04:23:41.586Z,6.114197
2019-04-30T04:24:51.116Z,6.114197
2019-04-30T04:26:00.618Z,6.114197
2019-04-30T04:27:10.184Z,6.114197
2019-04-30T04:28:20.725Z,6.114197
2019-04-30T04:29:31.234Z,6.144409
2019-04-30T04:30:42.928Z,6.124268
2019-04-30T04:31:51.241Z,6.124268
2019-04-30T04:33:01.792Z,6.144409
2019-04-30T04:34:11.319Z,6.144409
2019-04-30T04:35:20.810Z,6.164551
2019-04-30T04:36:30.524Z,6.164551
2019-04-30T04:37:40.883Z,6.174622
2019-04-30T04:38:50.865Z,6.174622
2019-04-30T04:40:00.937Z,6.194763
2019-04-30T04:41:10.568Z,6.174622
2019-04-30T04:42:20.938Z,6.204834
2019-04-30T04:43:31.472Z,6.194763
2019-04-30T04:44:41.011Z,6.194763
2019-04-30T04:45:51.526Z,6.204834
2019-04-30T04:47:01.070Z,6.204834
2019-04-30T04:48:11.574Z,6.224976
2019-04-30T04:49:22.092Z,6.224976
2019-04-30T04:50:31.605Z,6.224976
2019-04-30T04:51:42.262Z,6.235046
2019-04-30T04:52:50.624Z,6.235046
2019-04-30T04:54:03.183Z,6.235046
2019-04-30T04:55:10.668Z,6.255188
2019-04-30T04:56:21.216Z,6.255188
2019-04-30T04:57:31.743Z,6.255188
2019-04-30T04:58:41.252Z,6.265259
2019-04-30T04:59:50.764Z,6.27533
2019-04-30T05:01:01.267Z,6.265259
2019-04-30T05:02:11.797Z,6.27533
2019-04-30T05:03:21.335Z,6.27533
2019-04-30T05:04:30.834Z,6.305542
2019-04-30T05:05:41.375Z,6.27533
2019-04-30T05:06:50.891Z,6.255188
2019-04-30T05:08:01.407Z,6.255188
2019-04-30T05:09:10.936Z,6.27533
2019-04-30T05:10:20.446Z,6.27533
2019-04-30T05:11:31.611Z,6.27533
2019-04-30T05:12:40.487Z,6.27533
2019-04-30T05:13:51.029Z,6.295471
2019-04-30T05:15:00.555Z,6.27533
2019-04-30T05:16:10.087Z,6.27533
2019-04-30T05:17:19.602Z,6.27533
2019-04-30T05:18:30.119Z,6.295471
2019-04-30T05:19:39.644Z,6.305542
2019-04-30T05:20:49.162Z,6.305542
2019-04-30T05:21:59.779Z,6.305542
2019-04-30T05:23:10.238Z,6.325684
2019-04-30T05:24:20.769Z,6.345825
2019-04-30T05:25:30.267Z,6.355896
2019-04-30T05:26:39.799Z,6.345825
2019-04-30T05:27:49.313Z,6.345825
2019-04-30T05:28:59.856Z,6.355896
2019-04-30T05:30:12.123Z,6.376038
2019-04-30T05:31:21.219Z,6.376038
2019-04-30T05:32:30.380Z,6.376038
2019-04-30T05:33:39.921Z,6.376038
2019-04-30T05:34:49.708Z,6.386108
2019-04-30T05:35:59.991Z,6.355896
2019-04-30T05:37:10.542Z,6.376038
2019-04-30T05:38:20.064Z,6.376038
2019-04-30T05:39:30.596Z,6.376038
2019-04-30T05:40:42.489Z,6.376038
2019-04-30T05:41:50.611Z,6.376038
2019-04-30T05:43:00.439Z,6.376038
2019-04-30T05:44:10.681Z,6.386108
2019-04-30T05:45:20.212Z,6.386108
2019-04-30T05:46:30.002Z,6.386108
2019-04-30T05:47:40.242Z,6.386108
2019-04-30T05:48:50.751Z,6.386108
2019-04-30T05:50:00.306Z,6.386108
2019-04-30T05:51:09.824Z,6.376038
2019-04-30T05:52:20.346Z,6.376038
2019-04-30T05:53:29.846Z,6.386108
2019-04-30T05:54:40.837Z,6.40625
2019-04-30T05:55:50.356Z,6.40625
2019-04-30T05:56:59.927Z,6.40625
2019-04-30T05:58:10.454Z,6.416321
2019-04-30T05:59:20.998Z,6.40625
2019-04-30T06:00:30.737Z,6.386108
2019-04-30T06:01:47.823Z,6.416321
2019-04-30T06:02:51.530Z,6.386108
2019-04-30T06:04:01.038Z,6.386108
2019-04-30T06:05:10.578Z,6.40625
2019-04-30T06:06:20.125Z,6.416321
2019-04-30T06:07:29.960Z,6.436462
2019-04-30T06:08:40.153Z,6.436462
2019-04-30T06:09:49.711Z,6.436462
2019-04-30T06:11:00.235Z,6.416321
2019-04-30T06:12:11.393Z,6.436462
2019-04-30T06:13:20.271Z,6.416321
2019-04-30T06:14:29.806Z,6.436462
2019-04-30T06:15:40.306Z,6.436462
2019-04-30T06:16:51.713Z,6.446533
2019-04-30T06:18:10.386Z,6.446533
2019-04-30T06:19:10.862Z,6.446533
2019-04-30T06:20:21.014Z,6.456604
2019-04-30T06:21:30.107Z,6.446533
2019-04-30T06:22:39.638Z,6.456604
2019-04-30T06:23:50.160Z,6.456604
2019-04-30T06:24:59.718Z,6.476746
2019-04-30T06:26:12.950Z,6.476746
2019-04-30T06:27:20.742Z,6.506958
2019-04-30T06:28:30.278Z,6.506958
2019-04-30T06:29:39.817Z,6.476746
2019-04-30T06:30:49.401Z,6.476746
2019-04-30T06:31:59.864Z,6.476746
2019-04-30T06:33:11.720Z,6.476746
2019-04-30T06:34:19.903Z,6.456604
2019-04-30T06:35:30.419Z,6.456604
2019-04-30T06:36:50.932Z,6.446533
2019-04-30T06:37:50.441Z,6.456604
2019-04-30T06:38:59.952Z,6.476746
2019-04-30T06:40:11.715Z,6.436462
2019-04-30T06:41:20.018Z,6.456604
2019-04-30T06:42:30.604Z,6.456604
2019-04-30T06:43:40.122Z,6.486816
2019-04-30T06:44:49.665Z,6.476746
2019-04-30T06:46:00.203Z,6.486816
2019-04-30T06:47:09.722Z,6.506958
2019-04-30T06:48:20.228Z,6.486816
2019-04-30T06:49:30.765Z,6.486816
2019-04-30T06:50:40.317Z,6.506958
2019-04-30T06:51:49.856Z,6.506958
2019-04-30T06:53:01.469Z,6.517029
2019-04-30T06:54:11.056Z,6.53717
2019-04-30T06:55:20.424Z,6.53717
2019-04-30T06:56:30.991Z,6.557312
2019-04-30T06:57:40.547Z,6.567383
2019-04-30T06:58:52.355Z,6.587524
2019-04-30T06:59:59.728Z,6.587524
2019-04-30T07:01:10.203Z,6.597595
2019-04-30T07:02:19.906Z,6.617737
2019-04-30T07:03:30.239Z,6.627808
2019-04-30T07:04:40.237Z,6.668091
2019-04-30T07:05:50.338Z,6.688232
2019-04-30T07:06:59.859Z,6.738586
2019-04-30T07:08:12.045Z,6.698303
2019-04-30T07:09:19.906Z,6.718445
2019-04-30T07:10:30.442Z,6.698303
2019-04-30T07:11:40.959Z,6.698303
2019-04-30T07:12:50.466Z,6.718445
2019-04-30T07:14:00.175Z,6.738586
2019-04-30T07:15:13.373Z,6.748657
2019-04-30T07:16:21.013Z,6.748657
2019-04-30T07:17:30.504Z,6.718445
2019-04-30T07:18:41.025Z,6.738586
2019-04-30T07:19:56.177Z,6.738586
2019-04-30T07:21:00.067Z,6.718445
2019-04-30T07:22:09.582Z,6.738586
2019-04-30T07:23:20.098Z,6.768799
2019-04-30T07:24:29.745Z,6.748657
2019-04-30T07:25:40.154Z,6.748657
2019-04-30T07:26:54.601Z,6.77887
2019-04-30T07:28:01.193Z,6.77887
2019-04-30T07:29:10.731Z,6.78894
2019-04-30T07:30:20.276Z,6.809082
2019-04-30T07:31:30.800Z,6.839294
2019-04-30T07:32:40.310Z,6.839294
2019-04-30T07:33:52.976Z,6.849365
2019-04-30T07:35:00.354Z,6.879578
2019-04-30T07:36:09.923Z,6.919861
2019-04-30T07:37:24.338Z,6.960144
2019-04-30T07:38:29.954Z,6.960144
2019-04-30T07:39:40.456Z,6.950073
2019-04-30T07:40:49.990Z,6.950073
2019-04-30T07:41:59.988Z,6.970215
2019-04-30T07:43:10.082Z,6.970215
2019-04-30T07:44:30.872Z,6.960144
2019-04-30T07:45:31.912Z,6.960144
2019-04-30T07:46:45.166Z,6.990356
2019-04-30T07:47:50.096Z,6.970215
2019-04-30T07:49:00.653Z,6.970215
2019-04-30T07:50:11.567Z,6.929932
2019-04-30T07:51:22.415Z,6.919861
2019-04-30T07:52:34.041Z,6.919861
2019-04-30T07:53:42.765Z,6.889648
2019-04-30T07:54:52.280Z,6.879578
2019-04-30T07:56:02.144Z,6.879578
2019-04-30T07:57:12.308Z,6.950073
2019-04-30T07:58:21.824Z,6.960144
2019-04-30T07:59:31.334Z,6.960144
2019-04-30T08:00:40.866Z,6.950073
2019-04-30T08:02:03.922Z,6.960144
2019-04-30T08:03:01.867Z,6.990356
2019-04-30T08:04:11.375Z,6.990356
2019-04-30T08:05:20.902Z,6.950073
2019-04-30T08:06:31.159Z,6.960144
2019-04-30T08:07:40.965Z,6.919861
2019-04-30T08:08:51.692Z,6.950073
2019-04-30T08:10:00.914Z,6.950073
2019-04-30T08:11:22.423Z,6.960144
2019-04-30T08:12:29.177Z,6.960144
2019-04-30T08:13:32.540Z,6.960144
2019-04-30T08:14:42.030Z,7.000427
2019-04-30T08:15:51.537Z,6.990356
2019-04-30T08:17:01.063Z,6.990356
2019-04-30T08:18:10.591Z,6.970215
2019-04-30T08:19:20.125Z,6.970215
2019-04-30T08:20:29.690Z,6.990356
2019-04-30T08:21:40.422Z,6.990356
2019-04-30T08:22:50.011Z,6.970215
2019-04-30T08:24:01.058Z,6.970215
2019-04-30T08:25:10.024Z,6.970215
2019-04-30T08:26:20.522Z,6.970215
2019-04-30T08:27:30.065Z,7.000427
2019-04-30T08:28:40.592Z,7.000427
2019-04-30T08:29:50.169Z,6.960144
2019-04-30T08:30:59.676Z,6.990356
2019-04-30T08:32:10.225Z,6.990356
2019-04-30T08:33:19.789Z,7.020569
2019-04-30T08:34:30.304Z,7.000427
2019-04-30T08:35:39.926Z,7.020569
2019-04-30T08:36:51.465Z,7.050781
2019-04-30T08:37:59.909Z,7.050781
2019-04-30T08:39:10.431Z,7.101135
2019-04-30T08:40:20.936Z,7.151489
2019-04-30T08:41:30.539Z,7.171631
2019-04-30T08:42:40.421Z,7.151489
2019-04-30T08:43:50.615Z,7.171631
2019-04-30T08:45:00.136Z,7.181702
2019-04-30T08:46:10.651Z,7.201843
2019-04-30T08:47:21.206Z,7.211914
2019-04-30T08:48:44.122Z,7.242126
2019-04-30T08:49:40.766Z,7.252197
2019-04-30T09:01:19.440Z,7.503967
2019-04-30T09:06:10.540Z,7.53418
2019-04-30T09:07:20.083Z,7.564392
2019-04-30T09:08:30.634Z,7.655029
2019-04-30T09:09:41.190Z,7.695312
2019-04-30T09:10:50.675Z,7.695312
2019-04-30T09:12:00.216Z,7.6651
2019-04-30T09:13:10.767Z,7.695312
2019-04-30T09:14:20.286Z,7.725525
2019-04-30T09:15:30.812Z,7.765808
2019-04-30T09:16:41.354Z,7.78595
2019-04-30T09:18:00.487Z,7.796021
2019-04-30T09:19:02.378Z,7.78595
2019-04-30T09:20:11.910Z,7.745667
2019-04-30T09:21:21.406Z,7.695312
2019-04-30T09:22:30.933Z,7.725525
2019-04-30T09:23:47.566Z,7.755737
2019-04-30T09:24:50.957Z,7.846375
2019-04-30T09:26:00.513Z,7.967224
2019-04-30T09:27:10.750Z,7.906799
2019-04-30T09:28:20.586Z,7.926941
2019-04-30T09:29:30.128Z,7.926941
2019-04-30T09:30:39.668Z,7.876587
2019-04-30T09:31:49.415Z,7.896729
2019-04-30T09:32:59.730Z,7.947083
2019-04-30T09:34:16.923Z,7.967224
2019-04-30T09:35:20.735Z,7.967224
2019-04-30T09:36:31.246Z,7.937012
2019-04-30T09:37:41.706Z,7.906799
2019-04-30T09:38:51.267Z,7.896729
2019-04-30T09:40:01.795Z,7.876587
2019-04-30T09:41:12.298Z,7.876587
2019-04-30T09:42:21.849Z,7.876587
2019-04-30T09:43:31.372Z,7.866516
2019-04-30T09:44:40.891Z,7.896729
2019-04-30T09:45:50.436Z,7.876587
2019-04-30T09:46:59.965Z,7.896729
2019-04-30T09:48:09.519Z,7.947083
2019-04-30T09:49:20.035Z,8.027649
2019-04-30T09:50:30.649Z,8.078003
2019-04-30T09:51:40.540Z,8.128357
2019-04-30T09:52:50.889Z,8.158569
2019-04-30T09:54:03.358Z,8.178711
2019-04-30T09:55:11.977Z,8.188782
2019-04-30T09:56:21.389Z,8.158569
2019-04-30T09:57:30.942Z,8.279419
2019-04-30T09:58:40.475Z,8.410339
2019-04-30T09:59:50.441Z,8.490906
2019-04-30T10:01:00.962Z,8.480835
2019-04-30T10:02:10.489Z,8.490906
2019-04-30T10:03:20.924Z,8.551331
2019-04-30T10:04:31.126Z,8.561401
2019-04-30T10:05:41.094Z,8.702393
2019-04-30T10:06:50.625Z,8.813171
2019-04-30T10:08:00.154Z,8.974304
2019-04-30T10:09:09.790Z,9.17572
2019-04-30T10:10:20.199Z,9.286499
2019-04-30T10:11:29.728Z,9.407349
2019-04-30T10:12:39.307Z,9.588623
2019-04-30T10:13:49.795Z,9.638977
2019-04-30T10:14:59.401Z,9.920959
2019-04-30T10:16:09.921Z,10.05188
2019-04-30T10:17:20.457Z,10.202942
2019-04-30T10:18:29.986Z,10.223083
2019-04-30T10:19:39.514Z,10.263367
2019-04-30T10:20:50.054Z,10.374146
2019-04-30T10:21:59.576Z,10.233154
2019-04-30T10:23:10.133Z,10.162659
2019-04-30T10:24:20.669Z,10.102234
2019-04-30T10:25:30.208Z,9.951172
2019-04-30T10:26:39.764Z,9.920959
2019-04-30T10:27:49.815Z,10.092163
2019-04-30T10:28:59.819Z,10.374146
2019-04-30T10:30:09.474Z,10.404358
2019-04-30T10:31:20.897Z,10.525208
2019-04-30T10:32:30.418Z,11.069031
2019-04-30T10:33:39.955Z,11.43158
2019-04-30T10:34:49.477Z,11.471863
2019-04-30T10:35:59.502Z,11.481934
2019-04-30T10:37:09.568Z,11.351013
2019-04-30T10:38:20.103Z,11.351013
2019-04-30T10:39:30.618Z,11.371155
2019-04-30T10:40:40.136Z,11.250305
2019-04-30T10:41:49.788Z,11.17981
2019-04-30T10:42:59.479Z,11.079102
2019-04-30T10:44:10.074Z,10.958252
2019-04-30T10:45:19.670Z,11.069031
2019-04-30T10:46:29.279Z,11.230164
2019-04-30T10:47:39.290Z,11.220093
2019-04-30T10:48:49.339Z,11.451721
2019-04-30T10:49:58.897Z,11.592712
2019-04-30T10:51:09.026Z,11.451721
2019-04-30T10:52:19.299Z,11.773987
2019-04-30T10:53:29.525Z,11.804199
2019-04-30T10:54:39.090Z,11.68335
2019-04-30T10:55:48.718Z,11.784058
2019-04-30T10:56:59.085Z,11.81427
2019-04-30T10:58:08.723Z,11.965332
2019-04-30T10:59:18.257Z,12.217102
2019-04-30T11:00:28.643Z,12.418518
2019-04-30T11:01:39.142Z,12.398376
2019-04-30T11:02:47.241Z,12.529297
2019-04-30T11:03:56.777Z,12.549438
2019-04-30T11:05:06.313Z,12.529297
2019-04-30T11:06:15.960Z,12.619934
2019-04-30T11:07:25.605Z,12.801208
2019-04-30T11:08:35.121Z,12.670288
2019-04-30T11:09:44.692Z,13.083191
2019-04-30T11:10:54.282Z,13.083191
2019-04-30T11:12:03.806Z,13.153687
2019-04-30T11:13:13.315Z,13.133545
2019-04-30T11:14:22.832Z,13.345032
2019-04-30T11:15:32.364Z,13.002625
2019-04-30T11:16:41.898Z,12.9422
2019-04-30T11:17:52.583Z,12.871704
2019-04-30T11:19:01.927Z,12.861633
2019-04-30T11:20:11.598Z,12.861633
2019-04-30T11:21:22.150Z,12.932129
2019-04-30T11:22:31.596Z,13.042908
2019-04-30T11:23:41.145Z,13.19397
2019-04-30T11:24:58.292Z,13.496094
2019-04-30T11:26:01.737Z,13.627014
2019-04-30T11:27:11.537Z,13.717651
2019-04-30T11:28:21.520Z,14.049988
2019-04-30T11:29:30.997Z,14.039917
2019-04-30T11:30:40.251Z,14.301758
2019-04-30T11:31:49.796Z,14.624023
2019-04-30T11:32:59.358Z,14.45282
2019-04-30T11:34:08.665Z,14.362183
2019-04-30T11:35:18.358Z,13.959351
2019-04-30T11:36:29.151Z,13.737793
2019-04-30T11:37:37.229Z,12.861633
2019-04-30T11:38:48.728Z,12.44873
2019-04-30T11:39:56.718Z,12.166748
2019-04-30T11:41:06.222Z,11.864624
2019-04-30T11:42:15.787Z,11.622925
2019-04-30T11:43:25.293Z,11.43158
2019-04-30T11:44:34.816Z,11.290588
2019-04-30T11:45:44.324Z,11.169739
2019-04-30T11:46:53.829Z,11.079102
2019-04-30T11:48:03.369Z,11.069031
2019-04-30T11:49:12.889Z,10.998535
2019-04-30T11:50:22.433Z,10.998535
2019-04-30T11:51:31.943Z,11.069031
2019-04-30T11:52:41.480Z,11.290588
2019-04-30T11:53:51.048Z,11.602783
2019-04-30T11:55:00.565Z,12.166748
2019-04-30T11:56:10.114Z,13.002625
2019-04-30T11:57:19.681Z,13.929138
2019-04-30T11:58:30.541Z,14.664307
2019-04-30T11:59:39.732Z,15.067139
2019-04-30T12:00:49.525Z,14.885864
2019-04-30T12:01:59.763Z,14.553528
2019-04-30T12:03:09.289Z,14.20105
2019-04-30T12:04:19.814Z,13.667297
2019-04-30T12:05:30.347Z,13.234253
2019-04-30T12:06:39.873Z,12.911987
2019-04-30T12:07:50.628Z,12.801208
2019-04-30T12:09:00.045Z,12.549438
2019-04-30T12:10:09.590Z,12.458801
2019-04-30T12:11:20.140Z,12.529297
2019-04-30T12:12:29.668Z,12.579651
2019-04-30T12:13:39.241Z,12.670288
2019-04-30T12:14:49.402Z,12.801208
2019-04-30T12:15:58.820Z,12.861633
2019-04-30T12:17:08.788Z,12.760925
2019-04-30T12:18:18.341Z,12.650146
2019-04-30T12:19:28.635Z,12.619934
2019-04-30T12:20:37.423Z,12.670288
2019-04-30T12:21:46.976Z,12.680359
2019-04-30T12:22:56.530Z,13.083191
2019-04-30T12:24:06.035Z,13.042908
2019-04-30T12:25:15.558Z,12.982483
2019-04-30T12:26:25.085Z,13.032837
2019-04-30T12:27:34.622Z,13.093262
2019-04-30T12:28:44.151Z,13.052979
2019-04-30T12:29:53.669Z,13.153687
2019-04-30T12:31:05.701Z,13.254395
2019-04-30T12:32:12.685Z,14.110413
2019-04-30T12:33:22.245Z,13.94928
2019-04-30T12:34:31.799Z,13.788147
2019-04-30T12:35:41.405Z,13.667297
2019-04-30T12:36:51.945Z,13.717651
2019-04-30T12:38:01.459Z,13.486023
2019-04-30T12:39:10.998Z,13.254395
2019-04-30T12:40:28.622Z,13.163757
2019-04-30T12:41:30.999Z,13.163757
2019-04-30T12:42:41.525Z,13.113403
2019-04-30T12:43:51.051Z,13.19397
2019-04-30T12:45:00.606Z,13.234253
2019-04-30T12:46:10.145Z,13.163757
2019-04-30T12:47:21.945Z,13.153687
2019-04-30T12:48:30.218Z,13.204041
2019-04-30T12:49:40.750Z,13.19397
2019-04-30T12:50:50.258Z,13.163757
2019-04-30T12:51:59.792Z,13.163757
2019-04-30T12:53:09.509Z,13.093262
2019-04-30T12:54:18.851Z,12.982483
2019-04-30T12:55:29.335Z,12.952271
2019-04-30T12:56:37.916Z,13.042908
2019-04-30T12:57:57.990Z,12.952271
2019-04-30T12:58:57.960Z,12.9422
2019-04-30T13:00:09.366Z,12.650146
2019-04-30T13:01:17.042Z,12.750854
2019-04-30T13:02:26.560Z,13.334961
2019-04-30T13:03:36.121Z,14.120483
2019-04-30T13:04:46.658Z,15.359192
2019-04-30T13:05:56.712Z,15.772095
2019-04-30T13:07:06.168Z,16.305847
2019-04-30T13:08:15.696Z,16.930237
2019-04-30T13:09:25.121Z,17.443848
2019-04-30T13:10:34.674Z,17.886963
2019-04-30T13:11:44.158Z,18.179016
2019-04-30T13:12:53.765Z,16.990662
2019-04-30T13:14:03.299Z,16.164856
2019-04-30T13:15:12.316Z,15.570679
2019-04-30T13:16:21.828Z,15.4599
2019-04-30T13:17:31.353Z,15.187988
2019-04-30T13:18:40.887Z,15.097351
2019-04-30T13:19:50.431Z,14.654236
2019-04-30T13:21:00.057Z,14.483032
2019-04-30T13:22:11.279Z,14.95636
2019-04-30T13:23:20.041Z,16.527405
2019-04-30T13:24:31.398Z,17.22229
2019-04-30T13:25:50.548Z,16.71875
2019-04-30T13:26:51.597Z,16.315918
2019-04-30T13:28:01.131Z,16.5979
2019-04-30T13:29:10.678Z,17.544556
2019-04-30T13:30:20.516Z,17.292786
2019-04-30T13:31:30.730Z,16.406555
2019-04-30T13:32:41.254Z,16.104431
2019-04-30T13:33:51.591Z,15.792236
2019-04-30T13:35:01.319Z,15.882874
2019-04-30T13:36:10.808Z,16.748962
2019-04-30T13:37:20.337Z,16.044006
2019-04-30T13:38:29.880Z,15.762024
2019-04-30T13:39:49.681Z,15.58075
2019-04-30T13:40:50.954Z,15.621033
2019-04-30T13:42:00.476Z,16.003723
2019-04-30T13:43:10.978Z,16.789246
2019-04-30T13:44:20.548Z,17.776184
2019-04-30T13:45:30.144Z,18.330078
2019-04-30T13:46:39.761Z,17.514343
2019-04-30T13:47:49.285Z,16.406555
2019-04-30T13:48:59.814Z,15.903015
2019-04-30T13:50:09.465Z,15.520325
2019-04-30T13:51:19.930Z,15.097351
2019-04-30T13:52:30.964Z,14.664307